Time;durP1;ratioP1;P1;durP2;ratioP2;P2;SDS_P1;SDS_P2;PMS_P1;PMS_P2;Temp;Humidity;BMP_temperature;BMP_pressure;BME280_temperature;BME280_humidity;BME280_pressure;Samples;Min_cycle;Max_cycle;Signal;HPM_P1;HPM_P2
2022/03/06 00:02:14;;;;;;;80.07;13.95;;;1.60;51.80;;;;;;5003004;28;20262;-83
2022/03/06 00:04:40;;;;;;;84.28;13.45;;;1.50;53.80;;;;;;5002381;28;20597;-83
2022/03/06 00:07:08;;;;;;;79.87;14.33;;;1.50;53.60;;;;;;5003375;28;20198;-82
2022/03/06 00:09:34;;;;;;;85.40;13.68;;;1.50;55.30;;;;;;5003585;28;20178;-83
2022/03/06 00:12:00;;;;;;;81.57;12.70;;;1.50;54.20;;;;;;5002271;28;20174;-82
2022/03/06 00:14:25;;;;;;;79.57;13.07;;;1.40;56.30;;;;;;5003460;28;20533;-83
2022/03/06 00:16:54;;;;;;;84.60;13.60;;;1.40;56.70;;;;;;5002586;28;20205;-83
2022/03/06 00:19:19;;;;;;;78.70;13.43;;;1.40;58.00;;;;;;5003253;28;20622;-82
2022/03/06 00:21:45;;;;;;;83.10;14.30;;;1.40;56.20;;;;;;5003310;28;20190;-82
2022/03/06 00:24:11;;;;;;;79.70;14.90;;;1.40;57.70;;;;;;5003424;28;20518;-82
2022/03/06 00:26:37;;;;;;;80.83;13.50;;;1.30;59.10;;;;;;5003264;28;20186;-83
2022/03/06 00:29:03;;;;;;;79.47;13.53;;;1.20;60.10;;;;;;5006251;28;20158;-83
2022/03/06 00:31:29;;;;;;;85.90;15.30;;;1.30;59.00;;;;;;5007043;28;20167;-83
2022/03/06 00:33:55;;;;;;;79.05;13.88;;;1.20;59.50;;;;;;5007085;28;20177;-83
2022/03/06 00:36:20;;;;;;;77.77;12.83;;;1.10;60.20;;;;;;5007158;28;20186;-83
2022/03/06 00:38:47;;;;;;;87.13;13.00;;;1.10;61.60;;;;;;5005503;28;20417;-83
2022/03/06 00:41:13;;;;;;;83.82;13.27;;;1.10;62.30;;;;;;5006399;28;20642;-82
2022/03/06 00:43:39;;;;;;;83.75;15.75;;;1.10;62.50;;;;;;5006885;28;20171;-83
2022/03/06 00:46:06;;;;;;;86.17;14.77;;;0.90;62.20;;;;;;5006843;28;20189;-82
2022/03/06 00:48:31;;;;;;;81.47;14.68;;;0.90;64.00;;;;;;5007286;28;20398;-83
2022/03/06 00:50:57;;;;;;;79.67;13.87;;;0.90;67.00;;;;;;5006877;28;20584;-83
2022/03/06 00:53:23;;;;;;;82.40;13.00;;;0.90;67.70;;;;;;5005828;28;20171;-82
2022/03/06 00:55:50;;;;;;;80.87;14.33;;;0.90;67.10;;;;;;5007036;28;20429;-83
2022/03/06 00:58:16;;;;;;;84.60;14.93;;;0.90;68.50;;;;;;5005789;28;20205;-83
2022/03/06 01:00:45;;;;;;;81.03;14.27;;;0.80;66.90;;;;;;5006543;28;20171;-83
2022/03/06 01:03:14;;;;;;;84.53;14.02;;;0.80;69.00;;;;;;5006436;28;20891;-83
2022/03/06 01:05:40;;;;;;;84.15;16.50;;;0.80;70.50;;;;;;5006346;28;20190;-82
2022/03/06 01:08:07;;;;;;;77.95;13.10;;;0.70;74.20;;;;;;5005663;28;20190;-83
2022/03/06 01:10:35;;;;;;;87.57;15.80;;;0.60;75.20;;;;;;5005694;28;20174;-83
2022/03/06 01:13:01;;;;;;;89.28;15.70;;;0.60;76.90;;;;;;5005628;28;20163;-83
2022/03/06 01:15:27;;;;;;;89.43;20.25;;;0.60;81.20;;;;;;5006128;28;20186;-83
2022/03/06 01:17:53;;;;;;;83.80;16.70;;;0.60;82.20;;;;;;5005647;28;20167;-82
2022/03/06 01:20:23;;;;;;;85.80;22.70;;;0.60;82.40;;;;;;5006046;28;20835;-83
2022/03/06 01:22:50;;;;;;;87.65;21.70;;;0.60;82.80;;;;;;5005774;28;20631;-83
2022/03/06 01:25:15;;;;;;;88.00;20.33;;;0.50;83.00;;;;;;5003974;28;20197;-83
2022/03/06 01:27:41;;;;;;;84.27;23.27;;;0.50;82.80;;;;;;5005421;28;20210;-83
2022/03/06 01:30:09;;;;;;;90.60;22.80;;;0.50;84.90;;;;;;5004579;28;20198;-83
2022/03/06 01:32:35;;;;;;;88.82;23.10;;;0.40;85.60;;;;;;5005368;28;20422;-82
2022/03/06 01:35:02;;;;;;;82.38;22.35;;;0.40;85.90;;;;;;5005379;28;20171;-82
2022/03/06 01:37:27;;;;;;;86.13;23.55;;;0.40;86.80;;;;;;5005593;28;20191;-83
2022/03/06 01:39:53;;;;;;;86.80;25.67;;;0.40;85.20;;;;;;5004709;28;20193;-83
2022/03/06 01:42:19;;;;;;;86.73;23.43;;;0.40;85.40;;;;;;5004573;28;20205;-83
2022/03/06 01:44:46;;;;;;;83.30;23.00;;;0.30;86.20;;;;;;5005500;28;20555;-83
2022/03/06 01:47:11;;;;;;;91.45;22.83;;;0.30;88.10;;;;;;5005377;28;20422;-83
2022/03/06 01:49:37;;;;;;;85.23;22.13;;;0.20;88.10;;;;;;5004609;28;20182;-83
2022/03/06 01:52:03;;;;;;;85.10;21.17;;;0.20;85.60;;;;;;5005921;28;20163;-83
2022/03/06 01:54:29;;;;;;;85.78;22.33;;;0.20;84.00;;;;;;5006257;28;20197;-83
2022/03/06 01:56:55;;;;;;;88.00;22.20;;;0.20;86.90;;;;;;5005076;28;20198;-82
2022/03/06 01:59:23;;;;;;;83.67;20.60;;;0.20;88.90;;;;;;5005965;28;20166;-83
2022/03/06 02:01:52;;;;;;;81.93;22.48;;;0.10;88.90;;;;;;5005877;28;20190;-83
2022/03/06 02:04:18;;;;;;;85.95;20.05;;;0.10;90.20;;;;;;5005373;28;20167;-83
2022/03/06 02:06:43;;;;;;;84.63;24.20;;;0.10;90.80;;;;;;5004722;28;20216;-83
2022/03/06 02:09:09;;;;;;;85.10;21.67;;;0.10;91.40;;;;;;5006028;28;20222;-83
2022/03/06 02:11:35;;;;;;;89.40;21.33;;;0.10;91.20;;;;;;5004395;28;20174;-83
2022/03/06 02:14:02;;;;;;;85.47;22.60;;;0.00;90.90;;;;;;5005251;28;20163;-83
2022/03/06 02:16:31;;;;;;;87.50;21.40;;;0.00;91.60;;;;;;5005630;28;20213;-83
2022/03/06 02:18:57;;;;;;;87.82;23.83;;;0.00;90.90;;;;;;5004563;28;20244;-83
2022/03/06 02:21:22;;;;;;;86.00;23.23;;;0.00;90.20;;;;;;5005963;28;20167;-83
2022/03/06 02:23:48;;;;;;;84.37;23.03;;;-0.10;91.10;;;;;;5004537;28;20281;-83
2022/03/06 02:26:14;;;;;;;84.00;20.57;;;-0.10;90.60;;;;;;5005680;28;20178;-83
2022/03/06 02:28:41;;;;;;;90.63;23.90;;;-0.10;90.80;;;;;;5005199;28;20225;-83
2022/03/06 02:31:08;;;;;;;87.97;20.35;;;-0.10;92.50;;;;;;5006061;28;20167;-83
2022/03/06 02:33:34;;;;;;;83.85;22.83;;;-0.20;92.60;;;;;;5005898;28;20190;-84
2022/03/06 02:35:59;;;;;;;89.20;25.00;;;-0.20;92.80;;;;;;5005378;28;20186;-83
2022/03/06 02:38:25;;;;;;;93.30;24.00;;;-0.20;93.50;;;;;;5005335;28;20171;-84
2022/03/06 02:40:52;;;;;;;99.00;26.47;;;-0.20;94.40;;;;;;5005254;28;20193;-84
2022/03/06 02:43:18;;;;;;;88.78;24.10;;;-0.20;94.30;;;;;;5006447;28;20445;-83
2022/03/06 02:45:44;;;;;;;90.23;25.33;;;-0.30;93.10;;;;;;5005021;28;20209;-84
2022/03/06 02:48:10;;;;;;;88.30;22.20;;;-0.30;95.00;;;;;;5005862;28;20180;-84
2022/03/06 02:50:38;;;;;;;87.18;27.63;;;-0.30;96.10;;;;;;5005428;28;20409;-84
2022/03/06 02:53:06;;;;;;;89.90;26.67;;;-0.30;96.20;;;;;;5005871;28;20549;-84
2022/03/06 02:55:32;;;;;;;89.05;27.98;;;-0.30;95.20;;;;;;5006582;28;20619;-83
2022/03/06 02:57:58;;;;;;;88.50;29.17;;;-0.30;97.00;;;;;;5006633;28;20167;-84
2022/03/06 03:00:25;;;;;;;86.53;28.45;;;-0.30;97.30;;;;;;5007692;28;20425;-84
2022/03/06 03:02:52;;;;;;;90.18;24.33;;;-0.40;95.90;;;;;;5007079;28;20199;-84
2022/03/06 03:05:18;;;;;;;91.57;31.70;;;-0.40;97.00;;;;;;5006591;28;20169;-84
2022/03/06 03:07:48;;;;;;;92.40;35.17;;;-0.40;98.30;;;;;;5006609;28;20183;-83
2022/03/06 03:10:19;;;;;;;94.07;36.55;;;-0.40;99.10;;;;;;5006645;28;20178;-84
2022/03/06 03:12:45;;;;;;;93.30;31.52;;;-0.40;98.30;;;;;;5007150;28;20181;-84
2022/03/06 03:15:11;;;;;;;93.70;36.45;;;-0.40;98.40;;;;;;5006039;28;20182;-83
2022/03/06 03:17:38;;;;;;;90.13;32.50;;;-0.50;98.70;;;;;;5007174;28;20209;-84
2022/03/06 03:20:05;;;;;;;93.32;32.00;;;-0.50;99.20;;;;;;5007041;28;20193;-84
2022/03/06 03:22:31;;;;;;;91.07;32.92;;;-0.50;98.90;;;;;;5005879;28;20598;-84
2022/03/06 03:24:57;;;;;;;92.17;38.47;;;-0.50;98.90;;;;;;5007516;28;20178;-84
2022/03/06 03:27:22;;;;;;;92.90;43.37;;;-0.50;98.20;;;;;;5007186;28;20248;-83
2022/03/06 03:29:48;;;;;;;100.73;39.20;;;-0.50;99.00;;;;;;5007530;28;20201;-84
2022/03/06 03:32:14;;;;;;;96.10;40.93;;;-0.50;99.60;;;;;;5006838;28;20197;-84
2022/03/06 03:34:39;;;;;;;93.33;45.00;;;-0.60;99.60;;;;;;5006407;28;20223;-84
2022/03/06 03:37:05;;;;;;;90.70;41.27;;;-0.50;99.90;;;;;;5006447;28;20510;-84
2022/03/06 03:39:31;;;;;;;93.07;40.25;;;-0.50;99.90;;;;;;5006504;28;20181;-84
2022/03/06 03:41:57;;;;;;;93.70;40.47;;;-0.50;99.90;;;;;;5006461;28;20198;-84
2022/03/06 03:44:22;;;;;;;96.50;44.77;;;-0.50;99.90;;;;;;5006501;28;20219;-84
2022/03/06 03:46:48;;;;;;;92.80;43.23;;;-0.50;99.90;;;;;;5005515;28;20314;-84
2022/03/06 03:49:16;;;;;;;92.77;45.73;;;-0.50;99.90;;;;;;5004993;28;20167;-84
2022/03/06 03:51:45;;;;;;;95.28;46.22;;;-0.50;99.90;;;;;;5007279;28;20538;-84
2022/03/06 03:54:10;;;;;;;91.53;41.42;;;-0.50;99.70;;;;;;5005655;28;20178;-84
2022/03/06 03:56:36;;;;;;;94.10;44.90;;;-0.50;99.90;;;;;;5006543;28;20213;-84
2022/03/06 03:59:08;;;;;;;94.57;44.10;;;-0.50;99.90;;;;;;5006359;28;20511;-84
2022/03/06 04:01:34;;;;;;;90.43;38.45;;;-0.40;99.90;;;;;;5006536;28;20441;-84
2022/03/06 04:04:00;;;;;;;91.97;41.27;;;-0.40;99.90;;;;;;5010490;28;20570;-84
2022/03/06 04:06:25;;;;;;;95.30;41.70;;;-0.40;99.90;;;;;;5010563;28;20222;-84
2022/03/06 04:08:51;;;;;;;94.70;43.00;;;-0.40;99.90;;;;;;5010199;28;20178;-85
2022/03/06 04:11:17;;;;;;;92.37;38.83;;;-0.40;99.90;;;;;;5008905;28;20534;-84
2022/03/06 04:13:44;;;;;;;93.75;47.88;;;-0.40;99.90;;;;;;5008883;28;20530;-84
2022/03/06 04:16:09;;;;;;;98.40;39.25;;;-0.30;99.90;;;;;;5008990;28;20218;-84
2022/03/06 04:18:35;;;;;;;99.40;45.93;;;-0.40;99.90;;;;;;5008763;28;20166;-84
2022/03/06 04:21:00;;;;;;;94.40;40.73;;;-0.30;99.90;;;;;;5009565;28;20166;-84
2022/03/06 04:23:26;;;;;;;91.93;47.07;;;-0.30;99.90;;;;;;5009035;28;20196;-84
2022/03/06 04:25:52;;;;;;;92.63;40.13;;;-0.30;99.90;;;;;;5009307;28;20186;-84
2022/03/06 04:28:18;;;;;;;93.60;47.23;;;-0.20;99.90;;;;;;5008960;28;20167;-84
2022/03/06 04:30:43;;;;;;;101.93;53.80;;;-0.30;99.90;;;;;;5009323;28;20170;-84
2022/03/06 04:33:09;;;;;;;94.83;42.07;;;-0.30;99.90;;;;;;5008688;28;20163;-84
2022/03/06 04:35:35;;;;;;;96.27;45.07;;;-0.30;99.90;;;;;;5008778;28;20166;-84
2022/03/06 04:38:00;;;;;;;96.20;43.27;;;-0.20;99.90;;;;;;5007093;28;20170;-84
2022/03/06 04:40:26;;;;;;;89.00;33.87;;;-0.20;99.90;;;;;;5006929;28;20185;-84
2022/03/06 04:42:53;;;;;;;94.10;39.97;;;-0.20;99.90;;;;;;5007709;28;20253;-85
2022/03/06 04:45:19;;;;;;;93.95;43.50;;;-0.20;99.90;;;;;;5006393;28;20826;-83
2022/03/06 04:47:44;;;;;;;96.97;41.73;;;-0.20;99.90;;;;;;5008416;28;20165;-84
2022/03/06 04:50:10;;;;;;;92.83;46.23;;;-0.20;99.90;;;;;;5006788;28;20545;-84
2022/03/06 04:52:35;;;;;;;97.63;50.50;;;-0.20;99.90;;;;;;5007745;28;20186;-84
2022/03/06 04:55:01;;;;;;;94.60;48.63;;;-0.20;99.90;;;;;;5007905;28;20180;-84
2022/03/06 04:57:27;;;;;;;94.40;48.40;;;-0.10;99.90;;;;;;5008430;28;20607;-84
2022/03/06 04:59:52;;;;;;;87.17;40.90;;;-0.10;99.90;;;;;;5007981;28;20163;-84
2022/03/06 05:02:18;;;;;;;93.00;45.23;;;0.00;99.90;;;;;;5006396;28;20201;-84
2022/03/06 05:04:44;;;;;;;99.63;42.23;;;0.00;99.90;;;;;;5007404;28;20166;-84
2022/03/06 05:07:09;;;;;;;92.00;41.17;;;0.00;99.90;;;;;;5078568;23;20257;-88
2022/03/06 05:09:35;;;;;;;91.33;36.30;;;0.00;99.90;;;;;;4996354;28;20159;-87
2022/03/06 05:12:00;;;;;;;91.83;37.87;;;0.10;99.90;;;;;;4996428;28;20244;-88
2022/03/06 05:14:26;;;;;;;87.07;34.27;;;0.20;99.90;;;;;;4995126;28;20174;-88
2022/03/06 05:16:52;;;;;;;93.77;34.00;;;0.10;99.90;;;;;;4994952;28;20631;-88
2022/03/06 05:19:18;;;;;;;89.93;33.10;;;0.20;99.90;;;;;;4996438;28;20205;-87
2022/03/06 05:21:44;;;;;;;88.40;31.37;;;0.10;99.90;;;;;;4994879;28;20205;-88
2022/03/06 05:24:10;;;;;;;94.10;40.28;;;0.10;99.90;;;;;;4996174;28;20162;-88
2022/03/06 05:26:35;;;;;;;92.73;39.93;;;0.10;99.90;;;;;;4994796;28;20187;-87
2022/03/06 05:29:01;;;;;;;89.90;29.23;;;0.10;99.90;;;;;;4994747;28;20170;-88
2022/03/06 05:31:27;;;;;;;88.63;33.37;;;0.20;99.90;;;;;;4996059;28;20218;-88
2022/03/06 05:33:52;;;;;;;89.90;36.73;;;0.20;99.90;;;;;;4994668;28;20163;-88
2022/03/06 05:36:18;;;;;;;96.87;47.50;;;0.30;99.90;;;;;;4994663;28;20189;-87
2022/03/06 05:38:44;;;;;;;89.97;40.47;;;0.20;99.90;;;;;;4994698;28;20185;-87
2022/03/06 05:41:10;;;;;;;90.87;45.33;;;0.20;99.90;;;;;;4996236;28;20627;-88
2022/03/06 05:43:36;;;;;;;89.17;32.80;;;0.10;99.90;;;;;;4996077;28;20462;-88
2022/03/06 05:46:02;;;;;;;92.73;34.97;;;0.30;99.90;;;;;;4994572;28;20437;-87
2022/03/06 05:48:28;;;;;;;93.95;36.35;;;0.30;99.90;;;;;;4995664;28;20530;-87
2022/03/06 05:50:53;;;;;;;98.43;51.47;;;0.30;99.90;;;;;;4995777;28;20176;-88
2022/03/06 05:53:20;;;;;;;90.70;41.37;;;0.20;99.90;;;;;;4995323;28;20773;-88
2022/03/06 05:55:46;;;;;;;90.68;43.25;;;0.20;99.90;;;;;;4994250;28;20190;-88
2022/03/06 05:58:12;;;;;;;100.30;43.15;;;0.10;99.90;;;;;;4995477;28;20213;-88
2022/03/06 06:00:37;;;;;;;91.97;38.87;;;0.20;99.90;;;;;;4995643;28;20166;-88
2022/03/06 06:03:03;;;;;;;96.17;39.93;;;0.20;99.90;;;;;;4994169;28;20364;-88
2022/03/06 06:05:29;;;;;;;89.27;37.87;;;0.10;99.90;;;;;;4995377;28;20587;-87
2022/03/06 06:07:54;;;;;;;93.53;42.30;;;0.20;99.90;;;;;;4995473;28;20602;-88
2022/03/06 06:10:20;;;;;;;94.53;47.80;;;0.20;99.90;;;;;;4995226;28;20534;-88
2022/03/06 06:12:45;;;;;;;97.60;43.70;;;0.20;99.90;;;;;;4995523;28;20166;-88
2022/03/06 06:15:11;;;;;;;99.40;59.63;;;0.20;99.90;;;;;;4993840;28;20166;-88
2022/03/06 06:17:37;;;;;;;90.00;45.57;;;0.20;99.90;;;;;;4993823;28;20190;-88
2022/03/06 06:20:05;;;;;;;99.25;54.90;;;0.10;99.90;;;;;;4993753;28;20433;-88
2022/03/06 06:22:31;;;;;;;95.32;55.58;;;0.10;99.90;;;;;;4994068;28;20217;-88
2022/03/06 06:24:58;;;;;;;107.25;69.07;;;0.10;99.90;;;;;;4993348;28;20166;-88
2022/03/06 06:27:24;;;;;;;102.55;55.42;;;0.10;99.90;;;;;;4993696;28;20202;-88
2022/03/06 06:29:50;;;;;;;90.53;46.07;;;0.10;99.90;;;;;;4993703;28;20166;-88
2022/03/06 06:32:15;;;;;;;100.67;57.13;;;0.10;99.90;;;;;;4993632;28;20485;-88
2022/03/06 06:34:41;;;;;;;99.27;62.67;;;0.10;99.90;;;;;;4993599;28;20773;-88
2022/03/06 06:37:08;;;;;;;106.33;68.80;;;0.10;99.90;;;;;;4994788;28;20209;-88
2022/03/06 06:39:34;;;;;;;96.80;51.85;;;0.20;99.90;;;;;;4995097;28;20236;-88
2022/03/06 06:42:01;;;;;;;103.47;64.32;;;0.20;99.90;;;;;;4994851;28;20193;-88
2022/03/06 06:44:27;;;;;;;101.13;67.40;;;0.20;99.90;;;;;;4994708;28;20193;-88
2022/03/06 06:46:52;;;;;;;103.03;66.93;;;0.20;99.90;;;;;;4994742;28;20183;-87
2022/03/06 06:49:18;;;;;;;106.00;74.33;;;0.30;99.90;;;;;;4994665;28;20182;-87
2022/03/06 06:51:44;;;;;;;102.33;64.53;;;0.30;99.90;;;;;;4994927;28;20698;-88
2022/03/06 06:54:09;;;;;;;96.67;59.33;;;0.40;99.90;;;;;;4993492;28;20178;-88
2022/03/06 06:56:35;;;;;;;95.27;49.37;;;0.40;99.90;;;;;;4994479;28;20429;-87
2022/03/06 06:59:01;;;;;;;95.93;52.40;;;0.50;99.90;;;;;;4993664;28;20534;-88
2022/03/06 07:01:26;;;;;;;105.07;67.97;;;0.60;99.90;;;;;;4993288;28;20241;-88
2022/03/06 07:03:52;;;;;;;93.20;49.60;;;0.60;99.90;;;;;;4993117;28;20174;-88
2022/03/06 07:06:19;;;;;;;100.13;58.95;;;0.60;99.90;;;;;;4993284;28;20706;-87
2022/03/06 07:08:44;;;;;;;97.53;50.80;;;0.60;99.90;;;;;;4994610;28;20190;-88
2022/03/06 07:11:10;;;;;;;99.83;53.53;;;0.60;99.90;;;;;;4993217;28;20171;-87
2022/03/06 07:13:36;;;;;;;93.60;50.93;;;0.70;99.90;;;;;;4994758;28;20170;-88
2022/03/06 07:16:02;;;;;;;91.90;34.60;;;0.70;99.90;;;;;;4994031;28;20217;-87
2022/03/06 07:18:28;;;;;;;91.43;35.00;;;0.90;99.90;;;;;;4993867;28;20460;-87
2022/03/06 07:20:53;;;;;;;92.47;36.50;;;1.00;99.90;;;;;;4994900;28;20170;-87
2022/03/06 07:23:19;;;;;;;93.43;37.60;;;1.10;99.90;;;;;;4993347;28;20701;-87
2022/03/06 07:25:45;;;;;;;93.20;36.53;;;1.10;99.90;;;;;;4993639;28;20190;-87
2022/03/06 07:28:11;;;;;;;90.60;34.13;;;1.10;99.90;;;;;;4994218;28;20166;-87
2022/03/06 07:30:36;;;;;;;89.30;32.50;;;1.20;99.90;;;;;;4994552;28;20402;-87
2022/03/06 07:33:02;;;;;;;92.30;35.03;;;1.20;99.90;;;;;;4996033;28;20575;-87
2022/03/06 07:35:31;;;;;;;96.70;34.20;;;1.20;99.90;;;;;;4996497;28;20162;-87
2022/03/06 07:37:57;;;;;;;91.00;31.50;;;1.30;99.90;;;;;;4994047;28;20181;-87
2022/03/06 07:40:24;;;;;;;94.47;30.07;;;1.40;99.90;;;;;;4996870;28;20630;-87
2022/03/06 07:42:50;;;;;;;99.35;30.70;;;1.50;99.90;;;;;;4995629;28;20590;-87
2022/03/06 07:45:17;;;;;;;87.15;24.33;;;1.60;99.90;;;;;;4996353;28;20182;-87
2022/03/06 07:47:42;;;;;;;86.57;21.20;;;1.80;99.20;;;;;;4997478;28;20194;-87
2022/03/06 07:50:11;;;;;;;87.40;22.30;;;1.80;96.60;;;;;;4998534;28;20163;-87
2022/03/06 07:52:37;;;;;;;85.82;20.33;;;1.90;94.20;;;;;;4997937;28;20192;-87
2022/03/06 07:55:04;;;;;;;90.78;22.70;;;1.90;95.50;;;;;;4997860;28;20170;-87
2022/03/06 07:57:29;;;;;;;95.60;22.50;;;1.80;99.20;;;;;;5000040;28;20269;-87
2022/03/06 07:59:55;;;;;;;87.90;21.20;;;1.80;98.90;;;;;;4998782;28;20276;-87
2022/03/06 08:02:21;;;;;;;93.87;23.07;;;1.90;99.20;;;;;;4999976;28;20186;-87
2022/03/06 08:04:47;;;;;;;90.23;22.73;;;1.90;99.70;;;;;;4998683;28;20162;-87
2022/03/06 08:07:12;;;;;;;85.20;21.77;;;2.00;99.40;;;;;;4997991;28;20705;-87
2022/03/06 08:09:38;;;;;;;90.10;22.70;;;2.00;98.90;;;;;;4999096;28;20205;-87
2022/03/06 08:12:04;;;;;;;86.40;20.97;;;2.00;97.70;;;;;;4998333;28;20894;-87
2022/03/06 08:14:30;;;;;;;93.45;18.90;;;1.90;97.10;;;;;;4996407;28;20204;-87
2022/03/06 08:16:56;;;;;;;84.80;19.60;;;1.90;96.30;;;;;;4994056;28;20233;-87
2022/03/06 08:19:22;;;;;;;87.83;19.90;;;1.80;96.40;;;;;;4994390;28;20245;-88
2022/03/06 08:21:50;;;;;;;86.17;18.87;;;1.90;95.60;;;;;;4995357;28;20279;-87
2022/03/06 08:24:16;;;;;;;91.00;19.33;;;1.90;96.50;;;;;;4996233;28;20167;-88
2022/03/06 08:26:43;;;;;;;85.00;19.30;;;1.90;97.20;;;;;;4995690;28;20190;-88
2022/03/06 08:29:09;;;;;;;86.53;17.70;;;1.90;95.80;;;;;;4994551;28;20261;-88
2022/03/06 08:31:34;;;;;;;91.03;20.40;;;2.00;95.50;;;;;;4995330;28;20171;-87
2022/03/06 08:34:00;;;;;;;91.60;19.63;;;2.00;93.40;;;;;;4995212;28;20489;-88
2022/03/06 08:36:26;;;;;;;85.87;19.57;;;2.00;92.10;;;;;;4995647;28;20186;-87
2022/03/06 08:38:52;;;;;;;87.37;19.37;;;2.10;89.00;;;;;;4995150;28;20839;-87
2022/03/06 08:41:17;;;;;;;86.10;18.90;;;2.20;88.20;;;;;;4995620;28;20166;-88
2022/03/06 08:43:43;;;;;;;86.50;20.00;;;2.30;93.30;;;;;;4996850;28;20202;-88
2022/03/06 08:46:09;;;;;;;90.40;20.60;;;2.30;94.40;;;;;;4995161;28;20220;-88
2022/03/06 08:48:37;;;;;;;89.13;23.27;;;2.40;94.70;;;;;;4996978;28;20174;-88
2022/03/06 08:51:05;;;;;;;89.65;26.88;;;2.40;94.80;;;;;;5000321;28;20197;-87
2022/03/06 08:53:32;;;;;;;96.15;28.08;;;2.40;94.10;;;;;;4999373;28;20166;-87
2022/03/06 08:55:59;;;;;;;93.88;23.08;;;2.40;90.10;;;;;;5001051;28;20189;-88
2022/03/06 08:58:25;;;;;;;86.70;21.83;;;2.50;87.80;;;;;;5000682;28;20174;-87
2022/03/06 09:00:50;;;;;;;94.97;22.40;;;2.60;85.00;;;;;;5001540;28;20177;-87
2022/03/06 09:03:16;;;;;;;92.67;20.83;;;2.80;83.40;;;;;;5002627;28;20496;-87
2022/03/06 09:05:42;;;;;;;88.17;19.20;;;2.90;78.40;;;;;;5003333;28;20190;-87
2022/03/06 09:08:11;;;;;;;91.00;23.10;;;3.00;70.00;;;;;;5002129;28;20190;-87
2022/03/06 09:10:38;;;;;;;87.25;21.90;;;3.10;70.40;;;;;;5004493;28;20198;-87
2022/03/06 09:13:04;;;;;;;88.60;22.23;;;3.10;71.40;;;;;;5004639;28;20186;-87
2022/03/06 09:15:30;;;;;;;85.93;18.45;;;3.20;70.50;;;;;;5005509;28;20173;-87
2022/03/06 09:17:57;;;;;;;87.93;18.45;;;3.40;70.60;;;;;;5005738;28;20166;-87
2022/03/06 09:20:23;;;;;;;86.38;19.80;;;3.50;63.20;;;;;;5002884;28;20170;-88
2022/03/06 09:22:49;;;;;;;85.72;18.70;;;3.60;63.20;;;;;;5005153;28;20189;-87
2022/03/06 09:25:18;;;;;;;88.72;22.45;;;3.60;63.40;;;;;;5004727;28;20194;-88
2022/03/06 09:27:46;;;;;;;87.80;25.50;;;3.80;53.30;;;;;;4996760;28;20163;-88
2022/03/06 09:30:13;;;;;;;85.80;19.73;;;3.80;48.50;;;;;;4996453;28;20213;-88
2022/03/06 09:32:39;;;;;;;87.78;17.27;;;3.90;48.30;;;;;;4997221;28;20206;-86
2022/03/06 09:35:07;;;;;;;83.18;16.15;;;4.10;48.90;;;;;;4998770;28;20171;-88
2022/03/06 09:37:38;;;;;;;86.90;20.55;;;4.20;47.00;;;;;;4997005;28;20198;-89
2022/03/06 09:40:05;;;;;;;83.47;17.30;;;4.40;43.40;;;;;;4996871;28;20233;-87
2022/03/06 09:42:31;;;;;;;82.43;17.92;;;4.60;40.50;;;;;;5006992;28;20317;-88
2022/03/06 09:45:04;;;;;;;82.82;18.13;;;4.80;35.70;;;;;;4999838;28;20167;-88
2022/03/06 09:47:33;;;;;;;83.70;15.75;;;4.90;26.30;;;;;;4996130;28;20217;-88
2022/03/06 09:50:00;;;;;;;84.15;14.48;;;5.00;18.70;;;;;;4995384;28;20198;-89
2022/03/06 09:52:27;;;;;;;81.85;15.40;;;5.20;22.70;;;;;;4998421;28;20166;-88
2022/03/06 09:54:52;;;;;;;81.88;16.77;;;5.30;18.70;;;;;;4997693;28;20322;-89
2022/03/06 09:57:19;;;;;;;81.87;14.70;;;5.40;17.00;;;;;;4998224;28;20218;-87
2022/03/06 09:59:45;;;;;;;85.13;14.18;;;5.50;8.30;;;;;;4996890;28;20213;-87
2022/03/06 10:02:11;;;;;;;80.72;13.93;;;5.50;3.50;;;;;;4996599;28;20190;-87
2022/03/06 10:04:37;;;;;;;79.63;13.43;;;5.40;1.00;;;;;;4996872;28;20162;-88
2022/03/06 10:07:07;;;;;;;79.55;13.85;;;5.30;1.00;;;;;;4996406;28;20885;-87
2022/03/06 10:09:42;;;;;;;78.13;13.93;;;5.30;1.00;;;;;;4997356;28;20162;-87
2022/03/06 10:12:23;;;;;;;84.05;13.00;;;5.40;1.00;;;;;;4998075;28;20162;-87
2022/03/06 10:14:52;;;;;;;82.30;14.05;;;5.30;1.00;;;;;;5000001;28;20650;-87
2022/03/06 10:17:23;;;;;;;84.95;13.80;;;5.40;1.00;;;;;;4998828;28;20200;-88
2022/03/06 10:19:57;;;;;;;82.47;14.10;;;5.40;1.00;;;;;;4998384;28;20158;-87
2022/03/06 10:22:31;;;;;;;77.45;13.10;;;5.50;1.00;;;;;;4999361;28;20237;-88
2022/03/06 10:25:05;;;;;;;82.20;13.77;;;5.50;1.00;;;;;;4999361;28;20284;-88
2022/03/06 10:27:56;;;;;;;83.40;16.00;;;5.60;1.00;;;;;;4998627;28;20190;-87
2022/03/06 10:30:47;;;;;;;81.13;14.13;;;5.80;1.00;;;;;;4999479;28;20155;-87
2022/03/06 10:33:24;;;;;;;80.53;14.18;;;5.90;1.00;;;;;;4994216;28;20178;-87
2022/03/06 10:35:58;;;;;;;89.60;16.33;;;6.10;1.00;;;;;;4996357;28;20201;-87
2022/03/06 10:38:32;;;;;;;79.85;14.40;;;6.30;1.00;;;;;;4996753;28;20173;-87
2022/03/06 10:41:13;;;;;;;81.22;14.30;;;6.50;1.00;;;;;;4996162;28;20166;-87
2022/03/06 10:43:40;;;;;;;82.18;15.13;;;6.70;1.00;;;;;;4997405;28;20610;-87
2022/03/06 10:46:07;;;;;;;82.35;19.05;;;6.70;1.00;;;;;;5000420;28;20546;-87
2022/03/06 10:48:33;;;;;;;81.50;16.20;;;6.80;1.00;;;;;;5000908;28;20197;-87
2022/03/06 10:51:01;;;;;;;83.63;16.40;;;6.90;1.00;;;;;;5000792;28;20170;-87
2022/03/06 10:53:28;;;;;;;80.60;17.90;;;6.80;1.00;;;;;;4999455;28;20198;-87
2022/03/06 10:55:54;;;;;;;82.28;17.23;;;6.90;1.00;;;;;;4998391;28;20194;-87
2022/03/06 10:58:21;;;;;;;83.70;17.60;;;6.80;1.00;;;;;;4998365;28;20225;-87
2022/03/06 11:00:48;;;;;;;81.50;18.70;;;6.80;1.00;;;;;;5000686;28;20166;-88
2022/03/06 11:03:14;;;;;;;80.90;18.83;;;6.90;1.00;;;;;;4998748;28;20233;-87
2022/03/06 11:05:52;;;;;;;82.95;18.10;;;7.00;1.00;;;;;;4999387;28;20613;-87
2022/03/06 11:08:18;;;;;;;80.07;17.55;;;7.00;1.00;;;;;;4999193;28;20189;-87
2022/03/06 11:10:47;;;;;;;78.73;17.93;;;7.10;1.00;;;;;;4999952;28;20245;-87
2022/03/06 11:13:14;;;;;;;90.30;35.60;;;7.20;1.00;;;;;;5000259;28;20704;-87
2022/03/06 11:15:40;;;;;;;80.55;21.77;;;7.30;1.00;;;;;;4999716;28;20193;-87
2022/03/06 11:18:06;;;;;;;81.55;32.03;;;7.30;1.00;;;;;;5003338;28;20167;-87
2022/03/06 11:20:34;;;;;;;89.88;42.78;;;7.40;1.00;;;;;;5095544;23;20211;-87
2022/03/06 11:23:10;;;;;;;87.10;44.55;;;7.40;1.00;;;;;;5040741;28;20228;-87
2022/03/06 11:25:46;;;;;;;88.60;42.65;;;7.30;1.00;;;;;;5043134;28;20168;-88
2022/03/06 11:28:52;;;;;;;89.85;39.47;;;7.50;1.00;;;;;;5045025;28;20516;-88
2022/03/06 11:31:18;;;;;;;90.10;42.47;;;7.60;1.00;;;;;;5038615;28;20177;-88
2022/03/06 11:33:57;;;;;;;87.27;44.30;;;7.70;1.00;;;;;;5045906;28;20189;-88
2022/03/06 11:36:26;;;;;;;88.28;31.40;;;7.80;1.00;;;;;;5046703;28;20208;-88
2022/03/06 11:38:53;;;;;;;81.50;24.48;;;8.00;1.00;;;;;;5044487;28;20169;-88
2022/03/06 11:41:20;;;;;;;87.15;40.00;;;8.20;1.00;;;;;;5045519;28;20169;-88
2022/03/06 11:43:48;;;;;;;85.65;43.10;;;8.20;1.00;;;;;;5045644;28;20224;-87
2022/03/06 11:46:16;;;;;;;84.82;37.55;;;8.20;1.00;;;;;;5046275;28;20181;-88
2022/03/06 11:48:57;;;;;;;88.35;45.78;;;8.00;1.00;;;;;;5044770;28;20644;-88
2022/03/06 11:51:37;;;;;;;87.88;39.60;;;8.00;1.00;;;;;;5046833;28;20165;-88
2022/03/06 11:54:18;;;;;;;87.35;31.25;;;8.10;1.00;;;;;;5046086;28;20271;-88
2022/03/06 11:56:50;;;;;;;89.43;42.88;;;8.20;1.00;;;;;;5044617;28;20189;-88
2022/03/06 11:59:29;;;;;;;90.13;42.38;;;8.20;1.00;;;;;;5045653;28;20593;-88
2022/03/06 12:02:05;;;;;;;89.88;43.15;;;8.30;1.00;;;;;;5044944;28;20239;-88
2022/03/06 12:04:46;;;;;;;90.47;43.30;;;8.30;1.00;;;;;;5045603;28;20161;-88
2022/03/06 12:07:16;;;;;;;87.35;30.70;;;8.30;1.00;;;;;;5046656;28;20207;-88
2022/03/06 12:09:46;;;;;;;90.57;34.80;;;8.00;1.00;;;;;;5046825;28;20165;-88
2022/03/06 12:12:17;;;;;;;86.63;33.22;;;7.80;1.00;;;;;;5044794;28;20165;-88
2022/03/06 12:14:54;;;;;;;90.70;45.75;;;7.60;1.00;;;;;;5043638;28;20173;-88
2022/03/06 12:17:28;;;;;;;85.47;33.92;;;7.40;1.00;;;;;;5044827;28;20192;-87
2022/03/06 12:19:54;;;;;;;84.00;21.65;;;7.30;1.00;;;;;;5043886;28;20207;-88
2022/03/06 12:22:44;;;;;;;78.50;14.50;;;7.20;1.00;;;;;;5043151;28;20209;-88
2022/03/06 12:25:15;;;;;;;83.15;17.48;;;7.10;1.00;;;;;;5026819;28;20200;-88
2022/03/06 12:28:07;;;;;;;79.15;14.02;;;7.30;1.00;;;;;;5049205;28;20177;-88
2022/03/06 12:30:38;;;;;;;87.13;29.10;;;7.50;1.00;;;;;;5043419;28;20177;-88
2022/03/06 12:33:25;;;;;;;79.53;17.88;;;7.50;1.00;;;;;;5050299;28;20224;-88
2022/03/06 12:35:51;;;;;;;82.57;25.33;;;7.70;1.00;;;;;;5041575;28;20201;-88
2022/03/06 12:38:38;;;;;;;85.47;23.00;;;7.80;1.00;;;;;;5048024;28;20243;-88